Johnston, IA

9:36 AM CDT on April 01, 2015 (GMT -0500)
Biotique Systems Heartland | | Change Station
CLOSE
Current Station
Personal Weather Station
Location: Grimes, IA
Elevation: 935 ft
Nearby Weather Stations
Active Advisory: Fire Weather Warning

Elev 935 ft 41.70 °N, 93.76 °W | Updated 10 minutes ago

Clear
Clear
64.6 °F
Feels Like 64.6 °F
N
4.0
Wind Variable Wind from South
Gusts 19.0 mph

Today
High -- | Low -- °F
--% Chance of Precip.
Yesterday
High -- | Low -- °F
Precip. -- in
6:58 AM 7:40 PM
Waxing Gibbous, 93% visible
Pressure 29.85 in
Visibility 10.0 miles
Clouds Clear
Dew Point 38 °F
Humidity 37%
Rainfall 0.00 in
Snow Depth Not available.
UV 1.3 out of 12
Pollen 8.70 out of 12
Air Quality Not available.
Flu Activity Not available.
METAR KIKV 011415Z AUTO 18014G19KT 10SM CLR 18/01 A2985 RMK AO2

More Conditions Fewer Conditions

Pressure 29.85 in
Visibility 10.0 miles
Clouds Clear
Dew Point 38 °F
Humidity 37%
Rainfall 0.00 in
Snow Depth Not available.
UV 1.3 out of 12
Pollen 8.70 out of 12
Air Quality Not available.
Flu Activity Not available.
METAR KIKV 011415Z AUTO 18014G19KT 10SM CLR 18/01 A2985 RMK AO2

More Conditions Fewer Conditions

10-Day Weather Forecast

Almanac

Astronomy

Apr. 01, 2015 Rise Set
Actual Time
Civil Twilight
Nautical Twilight
Astronomical Twilight
Moon
Length of Visible Light
Length of Day
Tomorrow will be .
, % of the Moon is Illuminated

Today's Extremes

State Highs State Lows

Community

WunderPhotos

Upload Photos

1,809,963 photos uploaded!

WunderBlogs® & News

Nearby

Air Quality

  Air Quality AQ Index Pollutant
Not available.

Snow Depth

Station Depth Elevation

Earthquake Activity

City Distance Mag. Time & Date
Minimum magnitude displayed is 2.5.

Coastal Water Temperatures

Place Temperature

Stations

Nearby Weather Stations

Station Location Temp. Windchill Dew Point Humidity Wind Precip. Elev Updated Type
                   
Fire Weather Warning
Statement as of 9:30 AM CDT on April 01, 2015

... Red flag warning now in effect until 7 PM CDT this evening for
extreme fire conditions... .

* timing... winds will steadily increase this morning and persist
through the afternoon. Fire weather conditions will remain
extremely dangerous all day.

* Wind... south increasing to around 30 mph with gusts over 40 mph
at times.

* Relative humidity... as low as 25 to 30 percent.

* Fuel... grasses remain nearly 100 percent cured and surface
fuels are highly combustible.

* Impacts... any fires will spread very rapidly and be very
difficult to control in these dangerous conditions. Outdoor
burning is highly discouraged and should be avoided.

Precautionary/preparedness actions...

A red flag warning means that critical fire weather conditions
are either occurring now... or will shortly. A combination of
strong winds... low relative humidity... and warm temperatures will
create explosive fire growth potential.



Lee